Time;durP1;ratioP1;P1;durP2;ratioP2;P2;SDS_P1;SDS_P2;PMS_P1;PMS_P2;Temp;Humidity;BMP_temperature;BMP_pressure;BME280_temperature;BME280_humidity;BME280_pressure;Samples;Min_cycle;Max_cycle;Signal;HPM_P1;HPM_P2
2021/04/01 00:01:07;;;;;;;40.23;20.37;;;11.50;99.90;;;;;;4910087;29;20262;-61
2021/04/01 00:03:34;;;;;;;36.60;19.27;;;11.40;99.90;;;;;;4910568;29;20268;-61
2021/04/01 00:06:02;;;;;;;33.90;19.87;;;11.40;99.90;;;;;;4916096;29;20200;-62
2021/04/01 00:08:30;;;;;;;32.97;19.30;;;11.40;99.90;;;;;;4915866;29;20209;-62
2021/04/01 00:10:57;;;;;;;35.00;19.90;;;11.40;99.90;;;;;;4915236;29;20241;-62
2021/04/01 00:13:25;;;;;;;37.10;19.73;;;11.40;99.90;;;;;;4910394;29;20197;-62
2021/04/01 00:15:53;;;;;;;36.13;19.20;;;11.40;99.90;;;;;;4911618;29;20308;-61
2021/04/01 00:18:21;;;;;;;33.03;18.77;;;11.40;99.90;;;;;;4911528;29;20796;-61
2021/04/01 00:20:49;;;;;;;36.33;18.40;;;11.30;99.90;;;;;;4920363;29;20553;-61
2021/04/01 00:23:23;;;;;;;33.40;18.90;;;11.30;99.90;;;;;;4915078;29;20580;-62
2021/04/01 00:25:52;;;;;;;38.53;19.83;;;11.30;99.90;;;;;;4915488;29;20193;-61
2021/04/01 00:28:20;;;;;;;38.03;19.37;;;11.30;99.90;;;;;;4917487;29;20273;-62
2021/04/01 00:30:47;;;;;;;34.77;20.10;;;11.20;99.90;;;;;;4911979;29;20237;-62
2021/04/01 00:33:14;;;;;;;33.37;19.10;;;11.20;99.90;;;;;;4915197;29;20603;-62
2021/04/01 00:35:42;;;;;;;31.60;19.03;;;11.10;99.90;;;;;;4910582;29;20201;-62
2021/04/01 00:38:09;;;;;;;35.67;19.07;;;11.10;99.90;;;;;;4920510;29;20200;-61
2021/04/01 00:40:36;;;;;;;33.67;19.33;;;11.10;99.90;;;;;;4918527;29;20221;-62
2021/04/01 00:43:04;;;;;;;40.87;20.13;;;11.00;99.90;;;;;;4914451;29;20209;-61
2021/04/01 00:45:31;;;;;;;37.23;20.87;;;11.00;99.90;;;;;;4919876;29;20233;-61
2021/04/01 00:47:59;;;;;;;38.97;19.63;;;10.90;99.90;;;;;;4905231;29;20288;-61
2021/04/01 00:50:29;;;;;;;39.70;21.40;;;10.90;99.90;;;;;;4915296;29;20212;-62
2021/04/01 00:52:57;;;;;;;42.37;22.20;;;10.90;99.90;;;;;;4921819;29;20297;-62
2021/04/01 00:55:25;;;;;;;39.30;21.97;;;10.90;99.90;;;;;;4914139;29;20193;-61
2021/04/01 00:57:54;;;;;;;38.57;21.20;;;10.90;99.90;;;;;;4920428;29;20712;-62
2021/04/01 01:00:27;;;;;;;37.03;21.33;;;11.00;99.90;;;;;;4913515;29;20197;-60
2021/04/01 01:02:55;;;;;;;37.27;21.20;;;11.10;99.90;;;;;;4914134;29;20269;-61
2021/04/01 01:05:29;;;;;;;36.70;20.93;;;11.10;99.90;;;;;;4915145;29;20195;-61
2021/04/01 01:07:56;;;;;;;40.13;21.97;;;11.10;99.90;;;;;;4913523;29;20280;-61
2021/04/01 01:10:28;;;;;;;37.13;20.80;;;11.10;99.90;;;;;;4920744;29;20896;-61
2021/04/01 01:12:56;;;;;;;31.80;19.03;;;11.10;99.90;;;;;;4915627;29;20208;-61
2021/04/01 01:15:24;;;;;;;34.00;19.03;;;11.10;99.90;;;;;;4914964;29;20711;-61
2021/04/01 01:17:52;;;;;;;34.33;19.53;;;11.10;99.90;;;;;;4922687;29;20496;-61
2021/04/01 01:20:21;;;;;;;35.23;20.13;;;11.00;99.90;;;;;;4912531;29;20190;-62
2021/04/01 01:23:10;;;;;;;36.47;20.53;;;11.00;99.90;;;;;;4914252;29;20193;-61
2021/04/01 01:25:38;;;;;;;34.77;19.90;;;11.00;99.90;;;;;;4923472;29;20208;-61
2021/04/01 01:28:06;;;;;;;35.00;18.97;;;11.00;99.90;;;;;;4930436;29;20719;-61
2021/04/01 01:30:34;;;;;;;36.20;18.50;;;10.90;99.90;;;;;;4914236;29;20281;-61
2021/04/01 01:33:05;;;;;;;35.30;19.30;;;10.90;99.90;;;;;;4921701;29;20291;-61
2021/04/01 01:35:34;;;;;;;30.50;17.50;;;10.80;99.90;;;;;;4909469;29;20198;-62
2021/04/01 01:38:03;;;;;;;31.70;19.10;;;10.80;99.90;;;;;;4927883;29;20216;-61
2021/04/01 01:40:34;;;;;;;33.53;19.50;;;10.70;99.90;;;;;;4919836;29;20222;-62
2021/04/01 01:43:05;;;;;;;33.47;19.23;;;10.70;99.90;;;;;;4911852;29;20193;-61
2021/04/01 01:45:33;;;;;;;35.03;19.17;;;10.70;99.90;;;;;;4915795;29;20232;-61
2021/04/01 01:48:00;;;;;;;36.43;19.43;;;10.60;99.90;;;;;;4913518;29;20276;-61
2021/04/01 01:50:29;;;;;;;40.53;20.60;;;10.60;99.90;;;;;;4929066;29;20220;-62
2021/04/01 01:52:57;;;;;;;36.10;21.03;;;10.50;99.90;;;;;;4896581;29;20197;-62
2021/04/01 01:55:26;;;;;;;42.50;21.77;;;10.50;99.90;;;;;;4927322;29;20212;-61
2021/04/01 01:57:53;;;;;;;36.27;20.87;;;10.50;99.90;;;;;;4917270;29;20208;-61
2021/04/01 02:00:26;;;;;;;42.60;20.83;;;10.50;99.90;;;;;;4919051;29;20198;-61
2021/04/01 02:02:55;;;;;;;34.93;19.97;;;10.50;99.90;;;;;;4920135;29;20212;-62
2021/04/01 02:05:24;;;;;;;33.57;19.77;;;10.50;99.90;;;;;;4912182;29;20503;-62
2021/04/01 02:07:52;;;;;;;38.20;21.07;;;10.40;99.90;;;;;;4918862;29;20193;-61
2021/04/01 02:10:21;;;;;;;37.60;21.33;;;10.40;99.90;;;;;;4910429;29;20281;-61
2021/04/01 02:12:49;;;;;;;33.87;19.73;;;10.40;99.90;;;;;;4912843;29;20193;-62
2021/04/01 02:15:22;;;;;;;35.77;20.20;;;10.30;99.90;;;;;;4927124;29;20192;-61
2021/04/01 02:17:49;;;;;;;35.57;19.53;;;10.30;99.90;;;;;;4912921;29;20713;-61
2021/04/01 02:20:16;;;;;;;44.73;21.07;;;10.20;99.90;;;;;;4915305;29;20213;-61
2021/04/01 02:22:44;;;;;;;35.13;20.40;;;10.20;99.90;;;;;;4927721;29;20789;-61
2021/04/01 02:25:12;;;;;;;37.13;19.23;;;10.10;99.90;;;;;;4926725;29;20776;-61
2021/04/01 02:27:39;;;;;;;33.40;18.80;;;10.10;99.90;;;;;;4913011;29;20206;-61
2021/04/01 02:30:08;;;;;;;31.83;19.33;;;10.00;99.90;;;;;;4925013;29;20232;-62
2021/04/01 02:32:36;;;;;;;35.83;18.70;;;9.90;99.90;;;;;;4912689;29;20202;-62
2021/04/01 02:35:04;;;;;;;32.53;18.70;;;9.90;99.90;;;;;;4927295;29;20708;-61
2021/04/01 02:37:31;;;;;;;33.23;18.53;;;9.80;99.90;;;;;;4917262;29;20204;-61
2021/04/01 02:39:59;;;;;;;32.60;18.60;;;9.80;99.90;;;;;;4925278;29;20201;-61
2021/04/01 02:42:26;;;;;;;33.03;19.10;;;9.80;99.90;;;;;;4910136;29;20201;-61
2021/04/01 02:44:54;;;;;;;38.77;19.77;;;9.80;99.90;;;;;;4911155;29;20206;-61
2021/04/01 02:47:21;;;;;;;35.03;19.33;;;9.80;99.90;;;;;;4914171;29;20202;-61
2021/04/01 02:49:49;;;;;;;32.83;18.73;;;9.80;99.90;;;;;;4928786;29;20197;-62
2021/04/01 02:52:16;;;;;;;35.33;18.83;;;9.80;99.90;;;;;;4901334;29;20194;-61
2021/04/01 02:54:44;;;;;;;34.13;18.23;;;9.70;99.90;;;;;;4917836;29;20780;-61
2021/04/01 02:57:16;;;;;;;33.17;18.17;;;9.70;99.90;;;;;;4913908;29;20236;-61
2021/04/01 02:59:44;;;;;;;40.20;19.17;;;9.60;99.90;;;;;;4912166;29;20213;-61
2021/04/01 03:02:12;;;;;;;34.80;19.97;;;9.50;99.90;;;;;;4927021;29;20231;-61
2021/04/01 03:04:40;;;;;;;34.00;18.97;;;9.50;99.90;;;;;;4907104;29;20288;-62
2021/04/01 03:07:08;;;;;;;33.07;17.83;;;9.40;99.90;;;;;;4925695;29;20658;-61
2021/04/01 03:09:37;;;;;;;32.47;18.10;;;9.40;99.90;;;;;;4915174;29;20261;-61
2021/04/01 03:12:05;;;;;;;31.37;19.27;;;9.40;99.90;;;;;;4915445;29;20225;-61
2021/04/01 03:14:32;;;;;;;36.87;18.37;;;9.40;99.90;;;;;;4910687;29;20257;-61
2021/04/01 03:17:00;;;;;;;33.23;17.30;;;9.40;99.90;;;;;;4914375;29;20292;-61
2021/04/01 03:19:27;;;;;;;36.00;18.00;;;9.40;99.90;;;;;;4918386;29;20763;-61
2021/04/01 03:21:54;;;;;;;39.33;19.63;;;9.40;99.90;;;;;;4929783;29;20204;-61
2021/04/01 03:24:23;;;;;;;36.33;19.60;;;9.40;99.90;;;;;;4926906;29;20193;-62
2021/04/01 03:26:50;;;;;;;36.20;19.27;;;9.40;99.90;;;;;;4926547;29;20197;-61
2021/04/01 03:29:17;;;;;;;37.93;19.47;;;9.40;99.90;;;;;;4919416;29;20229;-61
2021/04/01 03:31:45;;;;;;;40.43;19.17;;;9.40;99.90;;;;;;4914906;29;20198;-61
2021/04/01 03:34:12;;;;;;;35.07;19.40;;;9.40;99.90;;;;;;4910839;29;20201;-61
2021/04/01 03:36:48;;;;;;;38.47;20.47;;;9.40;99.90;;;;;;4906168;29;20205;-61
2021/04/01 03:39:16;;;;;;;35.97;19.33;;;9.40;99.90;;;;;;4905152;29;20274;-60
2021/04/01 03:41:46;;;;;;;37.43;18.77;;;9.40;99.90;;;;;;4906634;29;20200;-61
2021/04/01 03:44:13;;;;;;;33.53;18.73;;;9.40;99.90;;;;;;4918136;29;20208;-61
2021/04/01 03:46:40;;;;;;;35.60;19.43;;;9.50;99.90;;;;;;4907495;29;20802;-61
2021/04/01 03:49:08;;;;;;;29.93;17.90;;;9.50;99.90;;;;;;4907207;29;20192;-61
2021/04/01 03:51:35;;;;;;;39.60;19.03;;;9.50;99.90;;;;;;4913373;29;20252;-61
2021/04/01 03:54:07;;;;;;;35.83;19.10;;;9.50;99.90;;;;;;4909899;29;20293;-62
2021/04/01 03:56:34;;;;;;;40.37;18.50;;;9.50;99.90;;;;;;4919303;29;20668;-61
2021/04/01 03:59:05;;;;;;;38.30;19.63;;;9.60;99.90;;;;;;4915837;29;20272;-60
2021/04/01 04:02:06;;;;;;;33.43;18.40;;;9.60;99.90;;;;;;4906641;29;20209;-62
2021/04/01 04:10:14;;;;;;;37.93;19.17;;;9.60;99.90;;;;;;4909204;29;20300;-61
2021/04/01 04:12:53;;;;;;;39.37;20.33;;;9.60;99.90;;;;;;4925244;29;20205;-61
2021/04/01 04:15:22;;;;;;;35.57;19.53;;;9.60;99.90;;;;;;4923000;29;20576;-62
2021/04/01 04:17:50;;;;;;;40.13;18.43;;;9.60;99.90;;;;;;4911075;29;20205;-62
2021/04/01 04:20:18;;;;;;;35.93;18.33;;;9.50;99.90;;;;;;4927527;29;20715;-61
2021/04/01 04:22:48;;;;;;;33.60;18.27;;;9.50;99.90;;;;;;4917595;29;20253;-61
2021/04/01 04:25:15;;;;;;;42.00;19.23;;;9.50;99.90;;;;;;4908903;29;20202;-61
2021/04/01 04:30:31;;;;;;;39.27;20.20;;;9.40;99.90;;;;;;4904153;29;20317;-61
2021/04/01 04:32:58;;;;;;;49.17;21.37;;;9.40;99.90;;;;;;4911019;29;20253;-61
2021/04/01 04:35:28;;;;;;;43.90;21.20;;;9.40;99.90;;;;;;4923538;29;20201;-61
2021/04/01 04:37:56;;;;;;;46.70;21.43;;;9.40;99.90;;;;;;4927395;29;20573;-61
2021/04/01 04:40:23;;;;;;;46.83;21.47;;;9.40;99.90;;;;;;4914332;29;20324;-61
2021/04/01 04:42:50;;;;;;;50.93;22.33;;;9.40;99.90;;;;;;4913790;29;20769;-61
2021/04/01 04:45:17;;;;;;;39.23;21.50;;;9.30;99.90;;;;;;4914210;29;20198;-61
2021/04/01 04:47:45;;;;;;;39.93;21.50;;;9.30;99.90;;;;;;4912166;29;20277;-61
2021/04/01 04:50:14;;;;;;;48.20;21.23;;;9.30;99.90;;;;;;4910112;29;20246;-61
2021/04/01 04:52:41;;;;;;;50.17;20.50;;;9.30;99.90;;;;;;4908990;29;20662;-62
2021/04/01 04:55:10;;;;;;;38.60;19.00;;;9.30;99.90;;;;;;4907144;29;20205;-61
2021/04/01 04:57:43;;;;;;;39.87;18.70;;;9.30;99.90;;;;;;4928320;29;20665;-61
2021/04/01 05:05:39;;;;;;;57.17;31.40;;;9.10;99.90;;;;;;4912729;29;20656;-61
2021/04/01 05:08:06;;;;;;;62.43;33.33;;;9.10;99.90;;;;;;4914868;29;20696;-61
2021/04/01 05:10:34;;;;;;;54.97;30.00;;;9.10;99.90;;;;;;4916311;29;20245;-61
2021/04/01 05:13:08;;;;;;;47.87;25.90;;;9.10;99.90;;;;;;4916659;29;20300;-62
2021/04/01 05:15:39;;;;;;;54.10;26.73;;;9.10;99.90;;;;;;4912184;29;20613;-61
2021/04/01 05:18:23;;;;;;;48.07;23.57;;;9.10;99.90;;;;;;4914427;29;20225;-61
2021/04/01 05:20:52;;;;;;;51.50;23.03;;;9.10;99.90;;;;;;4913483;29;20239;-61
2021/04/01 05:23:27;;;;;;;45.50;23.57;;;9.10;99.90;;;;;;4908634;29;20252;-61
2021/04/01 05:26:18;;;;;;;46.63;24.00;;;9.10;99.90;;;;;;4910154;29;20196;-61
2021/04/01 05:28:48;;;;;;;47.63;21.37;;;9.00;99.90;;;;;;4914504;29;20237;-61
2021/04/01 05:31:29;;;;;;;52.60;25.67;;;9.00;99.90;;;;;;4911304;29;20300;-61
2021/04/01 05:33:58;;;;;;;67.93;32.73;;;9.00;99.90;;;;;;4912172;29;20190;-62
2021/04/01 05:36:27;;;;;;;60.50;31.27;;;9.00;99.90;;;;;;4912453;29;20213;-61
2021/04/01 05:38:55;;;;;;;78.23;35.77;;;9.10;99.90;;;;;;4910591;29;20201;-62
2021/04/01 05:41:26;;;;;;;70.07;32.03;;;9.10;99.90;;;;;;4912691;29;20661;-61
2021/04/01 05:44:01;;;;;;;56.87;26.70;;;9.20;99.90;;;;;;4909282;29;20605;-61
2021/04/01 05:46:34;;;;;;;53.20;27.27;;;9.30;99.90;;;;;;4912681;29;20740;-60
2021/04/01 05:49:21;;;;;;;58.70;28.73;;;9.40;99.90;;;;;;4909467;29;20189;-61
2021/04/01 05:57:55;;;;;;;54.10;24.37;;;9.50;99.90;;;;;;4855696;29;21372;-60
2021/04/01 06:00:47;;;;;;;56.07;24.20;;;9.50;99.90;;;;;;4905604;29;20213;-61
2021/04/01 06:03:27;;;;;;;45.30;22.50;;;9.60;99.90;;;;;;4906155;29;20229;-61
2021/04/01 06:06:05;;;;;;;46.87;22.80;;;9.70;99.90;;;;;;4903349;29;20262;-61
2021/04/01 06:08:39;;;;;;;43.60;23.17;;;9.80;99.90;;;;;;4900656;29;20276;-61
2021/04/01 06:11:07;;;;;;;50.17;23.43;;;9.90;99.90;;;;;;4906168;29;20249;-61
2021/04/01 06:13:45;;;;;;;77.70;25.07;;;10.10;99.90;;;;;;4910965;29;20243;-62
2021/04/01 06:16:13;;;;;;;65.17;24.50;;;10.20;99.90;;;;;;4907493;29;20241;-61
2021/04/01 06:18:43;;;;;;;73.50;24.53;;;10.40;99.90;;;;;;4909174;29;20284;-61
2021/04/01 06:21:13;;;;;;;55.17;24.37;;;10.50;99.90;;;;;;4905056;29;20715;-61
2021/04/01 06:23:42;;;;;;;68.93;25.07;;;10.60;99.90;;;;;;4907311;29;20198;-62
2021/04/01 06:26:22;;;;;;;70.37;25.37;;;10.80;99.90;;;;;;4913682;29;20198;-61
2021/04/01 06:28:58;;;;;;;55.87;25.27;;;10.80;99.90;;;;;;4907158;29;20216;-61
2021/04/01 06:31:28;;;;;;;59.53;23.77;;;11.00;99.90;;;;;;4907961;29;20201;-61
2021/04/01 06:33:57;;;;;;;62.27;28.47;;;11.10;99.90;;;;;;4924056;29;20205;-61
2021/04/01 06:36:27;;;;;;;53.43;26.83;;;11.20;99.90;;;;;;4907161;29;20198;-61
2021/04/01 06:38:55;;;;;;;56.70;25.20;;;11.30;99.90;;;;;;4910507;29;20225;-61
2021/04/01 06:41:29;;;;;;;49.47;25.17;;;11.50;99.90;;;;;;4907391;29;20272;-60
2021/04/01 06:44:10;;;;;;;53.93;24.57;;;11.70;99.90;;;;;;4912726;29;20217;-61
2021/04/01 06:46:45;;;;;;;48.20;24.50;;;11.90;99.90;;;;;;4910895;29;20209;-61
2021/04/01 06:52:16;;;;;;;53.60;26.83;;;12.50;99.90;;;;;;4908195;29;20205;-61
2021/04/01 06:54:57;;;;;;;43.07;25.20;;;12.80;99.90;;;;;;4918504;29;20260;-60
2021/04/01 06:57:34;;;;;;;52.47;26.60;;;13.20;99.90;;;;;;4893929;29;20269;-61
2021/04/01 07:00:35;;;;;;;52.07;27.47;;;13.40;99.90;;;;;;4910027;29;20577;-60
2021/04/01 07:03:12;;;;;;;52.00;28.07;;;13.70;99.90;;;;;;4917668;29;20207;-61
2021/04/01 07:05:47;;;;;;;56.93;28.83;;;14.00;99.90;;;;;;4914517;29;20665;-61
2021/04/01 07:08:20;;;;;;;61.23;31.10;;;14.20;99.90;;;;;;4912465;29;20283;-60
2021/04/01 07:10:54;;;;;;;53.03;28.97;;;14.40;99.90;;;;;;4911300;29;20257;-61
2021/04/01 07:13:30;;;;;;;56.70;30.37;;;14.40;99.90;;;;;;4911084;29;20693;-61
2021/04/01 07:16:26;;;;;;;60.87;31.50;;;14.50;99.90;;;;;;4904924;29;20190;-61
2021/04/01 07:35:58;;;;;;;52.50;29.97;;;15.20;99.90;;;;;;4912120;29;20673;-61
2021/04/01 07:46:54;;;;;;;56.87;29.23;;;16.30;99.90;;;;;;4913608;29;20616;-61
2021/04/01 07:49:27;;;;;;;58.40;31.33;;;16.40;99.90;;;;;;4917364;29;20194;-61
2021/04/01 07:52:00;;;;;;;60.50;30.57;;;16.30;99.90;;;;;;4911971;29;20244;-61
2021/04/01 07:54:37;;;;;;;54.30;30.63;;;16.40;99.90;;;;;;4910836;29;20189;-61
2021/04/01 07:57:15;;;;;;;58.90;31.13;;;16.50;99.90;;;;;;4914061;29;20678;-61
2021/04/01 07:59:55;;;;;;;55.47;30.63;;;16.60;99.90;;;;;;4912700;29;20224;-61
2021/04/01 08:02:30;;;;;;;54.87;30.53;;;16.60;99.90;;;;;;4909888;29;20205;-61
2021/04/01 08:04:58;;;;;;;59.10;31.60;;;16.60;99.90;;;;;;4913184;29;20264;-62
2021/04/01 08:07:32;;;;;;;62.73;32.13;;;16.60;99.90;;;;;;4919918;29;20209;-61
2021/04/01 08:10:05;;;;;;;59.50;31.57;;;16.50;99.90;;;;;;4914183;29;20193;-61
2021/04/01 08:12:42;;;;;;;62.93;32.30;;;16.40;99.90;;;;;;4916953;29;20200;-62
2021/04/01 08:15:16;;;;;;;61.80;32.30;;;16.40;99.90;;;;;;4914374;29;20301;-61
2021/04/01 08:17:51;;;;;;;60.43;32.63;;;16.40;99.90;;;;;;4914126;29;20967;-61
2021/04/01 08:20:21;;;;;;;61.60;30.80;;;16.40;99.90;;;;;;4913704;29;20276;-61
2021/04/01 08:23:14;;;;;;;62.20;30.63;;;16.50;99.90;;;;;;4905416;29;20297;-61
2021/04/01 08:26:13;;;;;;;64.80;32.13;;;16.60;99.90;;;;;;4915846;29;20200;-61
2021/04/01 08:35:16;;;;;;;60.70;30.37;;;18.10;99.90;;;;;;4910006;29;20208;-60
2021/04/01 08:38:11;;;;;;;51.93;29.33;;;18.80;99.90;;;;;;4911302;29;20206;-62
2021/04/01 08:41:06;;;;;;;57.33;28.83;;;19.30;99.90;;;;;;4912447;29;20316;-62
2021/04/01 08:44:26;;;;;;;53.57;26.93;;;19.50;99.90;;;;;;4919049;29;20213;-61
2021/04/01 08:47:28;;;;;;;56.43;26.77;;;19.40;99.90;;;;;;4893140;29;20217;-61
2021/04/01 08:50:12;;;;;;;47.90;25.57;;;20.00;99.90;;;;;;4910128;29;20616;-61
2021/04/01 08:53:11;;;;;;;50.23;25.70;;;20.50;99.90;;;;;;4914458;29;20625;-62
2021/04/01 08:55:42;;;;;;;46.57;25.37;;;20.90;99.90;;;;;;4911835;29;20257;-64
2021/04/01 08:58:19;;;;;;;48.40;24.87;;;21.40;99.90;;;;;;4916480;29;20304;-62
2021/04/01 09:00:52;;;;;;;48.10;24.90;;;21.70;99.90;;;;;;4911109;29;20809;-62
2021/04/01 09:03:31;;;;;;;41.87;23.10;;;22.10;99.90;;;;;;4913385;29;20197;-62
2021/04/01 09:06:00;;;;;;;41.97;22.53;;;22.50;99.90;;;;;;4908607;29;20594;-62
2021/04/01 09:08:34;;;;;;;35.70;18.23;;;23.00;99.90;;;;;;4912757;29;20208;-62
2021/04/01 09:11:03;;;;;;;35.87;18.00;;;23.40;99.90;;;;;;4917760;29;20196;-63
2021/04/01 09:13:32;;;;;;;32.90;16.90;;;23.30;99.90;;;;;;4913272;29;20201;-62
2021/04/01 09:16:04;;;;;;;35.80;18.73;;;23.20;99.90;;;;;;4913397;29;20587;-62
2021/04/01 09:18:33;;;;;;;36.83;18.33;;;23.20;99.90;;;;;;4913723;29;20236;-63
2021/04/01 09:21:03;;;;;;;37.47;18.23;;;23.40;99.90;;;;;;4912299;29;20262;-63
2021/04/01 09:23:33;;;;;;;41.53;18.87;;;23.60;99.90;;;;;;4910885;29;20725;-61
2021/04/01 09:26:02;;;;;;;36.27;18.33;;;23.20;99.90;;;;;;4917599;29;20231;-62
2021/04/01 09:28:31;;;;;;;36.63;18.53;;;23.40;99.90;;;;;;4923151;29;20256;-63
2021/04/01 09:31:05;;;;;;;36.43;18.90;;;23.90;99.90;;;;;;4913613;29;20277;-63
2021/04/01 09:33:36;;;;;;;34.57;18.80;;;24.40;99.90;;;;;;4912871;29;20728;-63
2021/04/01 09:36:10;;;;;;;37.13;19.50;;;24.30;99.90;;;;;;4910926;29;20253;-63
2021/04/01 09:38:38;;;;;;;42.30;20.93;;;24.40;99.90;;;;;;4911839;29;20264;-62
2021/04/01 09:41:07;;;;;;;41.83;22.38;;;24.70;99.90;;;;;;4912204;29;20248;-63
2021/04/01 09:43:35;;;;;;;44.78;23.90;;;24.90;99.90;;;;;;4912721;29;20207;-63
2021/04/01 09:46:11;;;;;;;45.38;23.50;;;25.30;99.90;;;;;;4910764;29;20278;-63
2021/04/01 09:48:46;;;;;;;44.72;23.15;;;25.60;99.90;;;;;;4913043;29;20197;-63
2021/04/01 09:51:18;;;;;;;46.58;23.48;;;26.00;99.90;;;;;;4909327;29;20281;-63
2021/04/01 09:53:53;;;;;;;43.40;23.25;;;25.90;99.90;;;;;;4910137;29;20701;-63
2021/04/01 09:56:30;;;;;;;41.90;23.23;;;25.70;99.90;;;;;;4910238;29;20226;-62
2021/04/01 09:58:59;;;;;;;51.28;22.73;;;25.90;99.90;;;;;;4910981;29;20746;-63
2021/04/01 10:01:29;;;;;;;44.47;21.63;;;25.60;99.90;;;;;;4910223;29;21110;-63
2021/04/01 10:04:06;;;;;;;40.65;20.77;;;25.90;99.90;;;;;;4910146;29;20205;-63
2021/04/01 10:06:40;;;;;;;41.78;23.13;;;26.60;99.90;;;;;;4910498;29;20228;-63
2021/04/01 10:09:13;;;;;;;41.58;23.27;;;26.50;99.90;;;;;;4910679;29;20201;-63
2021/04/01 10:11:46;;;;;;;44.65;23.30;;;26.70;99.90;;;;;;4906145;29;20193;-63
2021/04/01 10:14:15;;;;;;;40.95;22.48;;;26.90;99.90;;;;;;4908852;29;20213;-63
2021/04/01 10:16:56;;;;;;;42.53;23.77;;;27.10;99.90;;;;;;4912162;29;20217;-63
2021/04/01 10:19:28;;;;;;;39.20;22.73;;;27.20;99.90;;;;;;4912079;29;20201;-63
2021/04/01 10:21:56;;;;;;;41.83;23.90;;;27.20;99.90;;;;;;4907318;29;20276;-63
2021/04/01 10:24:26;;;;;;;40.78;22.80;;;27.00;99.90;;;;;;4908945;29;20205;-63
2021/04/01 10:27:03;;;;;;;45.38;24.20;;;27.10;99.90;;;;;;4905848;29;20617;-63
2021/04/01 10:29:41;;;;;;;47.80;24.30;;;27.10;99.90;;;;;;4910021;29;20237;-63
2021/04/01 10:32:09;;;;;;;42.03;24.05;;;27.20;99.90;;;;;;4910254;29;20193;-63
2021/04/01 10:34:44;;;;;;;40.03;23.45;;;27.40;99.90;;;;;;4909733;29;20561;-63
2021/04/01 10:37:15;;;;;;;41.92;23.42;;;27.40;99.90;;;;;;4910533;29;20245;-63
2021/04/01 10:39:43;;;;;;;50.65;25.25;;;27.50;99.90;;;;;;4914235;29;20205;-63
2021/04/01 10:42:11;;;;;;;46.67;25.60;;;27.50;99.90;;;;;;4912762;29;20191;-63
2021/04/01 10:44:40;;;;;;;50.75;27.00;;;27.30;99.60;;;;;;4912046;29;20201;-62
2021/04/01 10:47:14;;;;;;;53.38;27.75;;;26.40;99.50;;;;;;4907005;29;20235;-62
2021/04/01 10:49:45;;;;;;;47.80;28.15;;;26.60;99.90;;;;;;4912125;29;20610;-63
2021/04/01 10:52:16;;;;;;;57.22;29.90;;;26.70;99.90;;;;;;4909052;29;20630;-63
2021/04/01 10:54:45;;;;;;;53.65;29.52;;;27.00;99.90;;;;;;4908858;29;20202;-63
2021/04/01 10:57:25;;;;;;;55.20;31.10;;;27.00;99.90;;;;;;4911398;29;20342;-63
2021/04/01 10:59:53;;;;;;;53.42;30.90;;;26.90;99.90;;;;;;4909932;29;20203;-63
2021/04/01 11:02:21;;;;;;;56.90;31.58;;;26.90;99.90;;;;;;4912871;29;20197;-63
2021/04/01 11:04:57;;;;;;;61.75;32.97;;;26.50;99.90;;;;;;4910672;29;20222;-63
2021/04/01 11:07:32;;;;;;;63.95;36.03;;;26.20;99.90;;;;;;4909934;29;20267;-62
2021/04/01 11:10:01;;;;;;;69.07;36.58;;;26.00;99.90;;;;;;4909863;29;20202;-63
2021/04/01 11:12:31;;;;;;;70.75;37.08;;;25.30;99.90;;;;;;4909917;29;20288;-63
2021/04/01 11:15:04;;;;;;;70.83;37.63;;;25.20;99.90;;;;;;4910221;29;20235;-62
2021/04/01 11:17:37;;;;;;;63.00;36.27;;;25.40;99.90;;;;;;4911757;29;20250;-62
2021/04/01 11:20:07;;;;;;;68.90;37.53;;;25.80;99.90;;;;;;4909568;29;20206;-63
2021/04/01 11:22:34;;;;;;;76.65;38.67;;;25.90;99.90;;;;;;4909036;29;20202;-62
2021/04/01 11:25:10;;;;;;;78.80;40.03;;;25.70;99.90;;;;;;4911578;29;20256;-62
2021/04/01 11:27:51;;;;;;;70.63;39.33;;;24.80;99.90;;;;;;4913123;29;20264;-62
2021/04/01 11:30:19;;;;;;;80.13;42.47;;;24.40;99.90;;;;;;4911091;29;20344;-62
2021/04/01 11:32:52;;;;;;;75.37;41.03;;;24.10;99.90;;;;;;4907692;29;20209;-62
2021/04/01 11:35:22;;;;;;;78.90;43.90;;;23.80;99.90;;;;;;4912179;29;20235;-59
2021/04/01 11:37:53;;;;;;;89.47;44.60;;;23.70;99.90;;;;;;4908538;29;20215;-62
2021/04/01 11:40:21;;;;;;;87.07;45.93;;;23.90;99.90;;;;;;4909891;29;20208;-62
2021/04/01 11:42:55;;;;;;;84.00;45.87;;;24.60;99.90;;;;;;4915230;29;20265;-63
2021/04/01 11:45:33;;;;;;;80.10;43.50;;;25.20;99.90;;;;;;4916179;29;20208;-63
2021/04/01 11:48:01;;;;;;;88.33;46.03;;;25.70;99.90;;;;;;4920705;29;20201;-63
2021/04/01 11:50:30;;;;;;;82.13;46.17;;;25.80;99.90;;;;;;4912757;29;20197;-63
2021/04/01 11:52:59;;;;;;;85.93;45.90;;;26.00;99.90;;;;;;4911346;29;20700;-63
2021/04/01 11:55:27;;;;;;;89.17;47.13;;;25.60;99.90;;;;;;4918005;29;20204;-62
2021/04/01 11:57:56;;;;;;;87.97;47.57;;;25.20;99.90;;;;;;4922389;29;20254;-62
2021/04/01 12:00:28;;;;;;;82.47;45.53;;;25.20;99.90;;;;;;4914112;29;20245;-62
2021/04/01 12:02:59;;;;;;;92.40;47.60;;;25.50;99.90;;;;;;4915444;29;20205;-62
2021/04/01 12:05:29;;;;;;;85.37;46.03;;;25.50;99.90;;;;;;4910128;29;20292;-62
2021/04/01 12:07:58;;;;;;;85.43;46.40;;;25.60;99.90;;;;;;4916486;29;20212;-62
2021/04/01 12:10:26;;;;;;;87.87;47.57;;;25.80;99.90;;;;;;4909494;29;20202;-63
2021/04/01 12:12:54;;;;;;;84.70;46.87;;;26.00;99.90;;;;;;4909180;29;20218;-62
2021/04/01 12:15:33;;;;;;;87.37;47.20;;;26.00;99.90;;;;;;4909740;29;20257;-61
2021/04/01 12:18:01;;;;;;;83.10;48.00;;;26.00;99.90;;;;;;4909826;29;20212;-62
2021/04/01 12:20:29;;;;;;;88.90;47.90;;;25.30;99.90;;;;;;4910079;29;20213;-62
2021/04/01 12:22:56;;;;;;;90.53;49.13;;;25.40;99.90;;;;;;4909967;29;20220;-62
2021/04/01 12:25:26;;;;;;;87.27;45.17;;;24.90;99.90;;;;;;4911428;29;20193;-62
2021/04/01 12:27:55;;;;;;;91.40;46.83;;;25.00;99.90;;;;;;4908905;29;20197;-62
2021/04/01 12:30:26;;;;;;;92.37;47.47;;;24.80;99.90;;;;;;4909736;29;20230;-62
2021/04/01 12:32:54;;;;;;;89.77;47.93;;;24.50;99.90;;;;;;4910366;29;20667;-62
2021/04/01 12:35:21;;;;;;;91.40;46.70;;;23.90;99.90;;;;;;4925751;29;20204;-62
2021/04/01 12:38:01;;;;;;;95.87;50.03;;;23.90;99.90;;;;;;4909314;29;20675;-61
2021/04/01 12:40:36;;;;;;;92.97;49.50;;;22.60;99.90;;;;;;4910706;29;20225;-61
2021/04/01 12:43:09;;;;;;;95.93;49.20;;;22.80;99.90;;;;;;4908207;29;20204;-61
2021/04/01 12:45:37;;;;;;;92.87;48.53;;;23.40;99.90;;;;;;4909286;29;20952;-62
2021/04/01 12:48:10;;;;;;;97.73;50.17;;;23.60;99.90;;;;;;4909904;29;20202;-62
2021/04/01 12:50:42;;;;;;;90.70;48.90;;;24.00;99.90;;;;;;4914472;29;20245;-62
2021/04/01 12:53:10;;;;;;;96.57;51.37;;;23.60;99.90;;;;;;4910985;29;20213;-61
2021/04/01 12:55:45;;;;;;;95.40;49.70;;;23.80;99.90;;;;;;4913596;29;20205;-61
2021/04/01 12:58:30;;;;;;;101.50;50.23;;;23.80;99.90;;;;;;4910791;29;20199;-62
2021/04/01 13:01:03;;;;;;;87.57;46.17;;;23.90;99.90;;;;;;4913261;29;20336;-62
2021/04/01 13:03:31;;;;;;;98.53;50.03;;;23.90;99.90;;;;;;4914303;29;20205;-62
2021/04/01 13:07:09;;;;;;;97.67;53.00;;;24.00;99.90;;;;;;4914671;29;20276;-62
2021/04/01 13:09:43;;;;;;;95.80;49.60;;;23.00;99.90;;;;;;4888497;29;20599;-61
2021/04/01 13:12:14;;;;;;;94.80;50.53;;;23.00;99.90;;;;;;4914933;29;20214;-62
2021/04/01 13:14:42;;;;;;;100.43;49.77;;;22.90;99.90;;;;;;4913551;29;20225;-62
2021/04/01 13:17:10;;;;;;;97.53;50.47;;;23.10;99.90;;;;;;4913048;29;20194;-61
2021/04/01 13:19:38;;;;;;;96.77;51.07;;;23.20;99.90;;;;;;4918734;29;20256;-62
2021/04/01 13:22:08;;;;;;;97.73;49.97;;;23.10;99.90;;;;;;4921633;29;20221;-62
2021/04/01 13:25:05;;;;;;;98.50;50.07;;;22.70;99.90;;;;;;4911615;29;20190;-61
2021/04/01 13:27:37;;;;;;;92.33;48.73;;;22.70;99.90;;;;;;4920250;29;20211;-61
2021/04/01 13:30:06;;;;;;;97.13;48.17;;;22.40;99.90;;;;;;4912821;29;20229;-62
2021/04/01 13:32:40;;;;;;;91.60;45.47;;;22.30;99.90;;;;;;4916654;29;20232;-61
2021/04/01 13:35:11;;;;;;;74.53;37.00;;;22.20;99.90;;;;;;4913136;29;20202;-61
2021/04/01 13:37:42;;;;;;;64.43;32.17;;;22.10;99.90;;;;;;4914569;29;20206;-61
2021/04/01 13:40:11;;;;;;;60.70;29.47;;;22.00;99.90;;;;;;4913830;29;20209;-61
2021/04/01 13:42:43;;;;;;;55.80;27.80;;;21.20;99.90;;;;;;4913450;29;20201;-61
2021/04/01 13:45:13;;;;;;;54.60;25.63;;;21.60;99.90;;;;;;4914278;29;20840;-62
2021/04/01 13:47:42;;;;;;;50.67;22.77;;;21.70;99.90;;;;;;4915851;29;20229;-61
2021/04/01 13:50:13;;;;;;;46.70;21.87;;;21.60;99.90;;;;;;4913676;29;20237;-61